Time;durP1;ratioP1;P1;durP2;ratioP2;P2;SDS_P1;SDS_P2;PMS_P1;PMS_P2;Temp;Humidity;BMP_temperature;BMP_pressure;BME280_temperature;BME280_humidity;BME280_pressure;Samples;Min_cycle;Max_cycle;Signal;HPM_P1;HPM_P2
2022/05/17 00:01:54;;;;;;;17.63;5.45;;;;;;;;;;4969712;28;20039;-57
2022/05/17 00:04:20;;;;;;;17.38;4.57;;;;;;;;;;4969179;28;20089;-57
2022/05/17 00:06:47;;;;;;;17.25;5.45;;;;;;;;;;4969470;28;20456;-57
2022/05/17 00:09:16;;;;;;;17.00;4.90;;;;;;;;;;4967485;28;20051;-57
2022/05/17 00:11:44;;;;;;;20.67;5.55;;;;;;;;;;4969140;28;20055;-56
2022/05/17 00:14:11;;;;;;;14.35;5.60;;;;;;;;;;4967946;28;20047;-57
2022/05/17 00:16:37;;;;;;;16.13;5.32;;;;;;;;;;4969206;28;20057;-57
2022/05/17 00:19:03;;;;;;;17.45;5.00;;;;;;;;;;4969735;28;20046;-57
2022/05/17 00:21:29;;;;;;;19.08;5.22;;;;;;;;;;4968893;28;20501;-56
2022/05/17 00:23:55;;;;;;;16.80;5.60;;;;;;;;;;4968847;28;20271;-56
2022/05/17 00:26:21;;;;;;;18.45;5.20;;;;;;;;;;4966876;28;20058;-57
2022/05/17 00:28:47;;;;;;;19.35;4.93;;;;;;;;;;4969178;28;20575;-57
2022/05/17 00:31:13;;;;;;;18.83;5.90;;;;;;;;;;4969066;28;20062;-57
2022/05/17 00:33:40;;;;;;;20.52;5.78;;;;;;;;;;4967998;28;20051;-57
2022/05/17 00:36:06;;;;;;;20.15;6.13;;;;;;;;;;4969207;28;20042;-57
2022/05/17 00:38:32;;;;;;;18.92;5.10;;;;;;;;;;4968396;28;20062;-57
2022/05/17 00:40:58;;;;;;;17.98;5.38;;;;;;;;;;4968520;28;20378;-57
2022/05/17 00:43:28;;;;;;;16.63;4.97;;;;;;;;;;4968573;28;20738;-57
2022/05/17 00:45:55;;;;;;;15.77;4.85;;;;;;;;;;4969076;28;21155;-57
2022/05/17 00:48:21;;;;;;;20.02;4.88;;;;;;;;;;4968586;28;20047;-56
2022/05/17 00:50:49;;;;;;;19.00;5.10;;;;;;;;;;4968717;28;20090;-57
2022/05/17 00:53:19;;;;;;;17.10;5.35;;;;;;;;;;4967998;28;20074;-57
2022/05/17 00:55:49;;;;;;;19.23;5.53;;;;;;;;;;4968399;28;20042;-57
2022/05/17 00:58:18;;;;;;;16.63;5.53;;;;;;;;;;4967056;28;20039;-57
2022/05/17 01:00:48;;;;;;;13.80;4.95;;;;;;;;;;4967421;28;20054;-57
2022/05/17 01:03:16;;;;;;;17.23;5.68;;;;;;;;;;4968233;28;20146;-57
2022/05/17 01:05:45;;;;;;;19.42;5.60;;;;;;;;;;4967850;28;20178;-57
2022/05/17 01:08:12;;;;;;;17.90;6.00;;;;;;;;;;4967388;28;20047;-57
2022/05/17 01:10:39;;;;;;;16.20;5.78;;;;;;;;;;4968697;28;20047;-57
2022/05/17 01:15:50;;;;;;;19.08;6.05;;;;;;;;;;4967829;28;20058;-57
2022/05/17 01:18:16;;;;;;;21.40;5.93;;;;;;;;;;4967964;28;20086;-57
2022/05/17 01:20:43;;;;;;;17.90;6.38;;;;;;;;;;4967937;28;20045;-57
2022/05/17 01:23:09;;;;;;;18.48;6.10;;;;;;;;;;4967529;28;20115;-57
2022/05/17 01:25:35;;;;;;;22.95;6.03;;;;;;;;;;4967783;28;20038;-57
2022/05/17 01:28:01;;;;;;;16.50;5.93;;;;;;;;;;4968571;28;20517;-57
2022/05/17 01:30:28;;;;;;;15.90;6.03;;;;;;;;;;4967380;28;20122;-57
2022/05/17 01:32:54;;;;;;;18.63;5.72;;;;;;;;;;4967878;28;20385;-57
2022/05/17 01:35:21;;;;;;;20.92;7.15;;;;;;;;;;4966117;28;20078;-57
2022/05/17 01:37:50;;;;;;;12.60;6.43;;;;;;;;;;4967415;28;20073;-57
2022/05/17 01:40:17;;;;;;;15.82;6.47;;;;;;;;;;4967424;28;20054;-57
2022/05/17 01:42:43;;;;;;;19.05;6.68;;;;;;;;;;4967217;28;20093;-57
2022/05/17 01:45:09;;;;;;;17.80;6.20;;;;;;;;;;4967968;28;20043;-57
2022/05/17 01:47:35;;;;;;;16.13;7.18;;;;;;;;;;4967417;28;20139;-57
2022/05/17 01:50:01;;;;;;;17.88;7.00;;;;;;;;;;4966655;28;20094;-57
2022/05/17 01:52:27;;;;;;;16.83;6.38;;;;;;;;;;4966498;28;20054;-56
2022/05/17 01:54:54;;;;;;;14.70;6.53;;;;;;;;;;4967494;28;20046;-57
2022/05/17 01:57:20;;;;;;;22.83;7.57;;;;;;;;;;4966781;28;20082;-57
2022/05/17 01:59:46;;;;;;;22.67;7.97;;;;;;;;;;4967671;28;20118;-57
2022/05/17 02:02:12;;;;;;;16.77;7.07;;;;;;;;;;4967433;28;20054;-57
2022/05/17 02:04:38;;;;;;;19.58;7.70;;;;;;;;;;4967207;28;20062;-57
2022/05/17 02:07:04;;;;;;;24.02;7.07;;;;;;;;;;4966697;28;20090;-56
2022/05/17 02:09:31;;;;;;;14.95;6.50;;;;;;;;;;4965670;28;20062;-56
2022/05/17 02:11:57;;;;;;;19.88;7.68;;;;;;;;;;4965110;28;20051;-57
2022/05/17 02:14:23;;;;;;;19.25;7.13;;;;;;;;;;4966828;28;20045;-57
2022/05/17 02:16:49;;;;;;;15.38;6.80;;;;;;;;;;4966729;28;20086;-57
2022/05/17 02:19:19;;;;;;;22.40;7.10;;;;;;;;;;4966870;28;20090;-57
2022/05/17 02:21:46;;;;;;;19.00;7.35;;;;;;;;;;4966164;28;20043;-57
2022/05/17 02:24:13;;;;;;;18.20;7.10;;;;;;;;;;4966699;28;20097;-57
2022/05/17 02:26:39;;;;;;;21.55;7.53;;;;;;;;;;4966786;28;20051;-57
2022/05/17 02:29:06;;;;;;;20.05;7.35;;;;;;;;;;4967040;28;20117;-55
2022/05/17 02:31:32;;;;;;;18.40;8.13;;;;;;;;;;4967093;28;20042;-57
2022/05/17 02:33:58;;;;;;;22.48;6.57;;;;;;;;;;4966770;28;20039;-57
2022/05/17 02:36:24;;;;;;;23.10;7.72;;;;;;;;;;4966286;28;20092;-57
2022/05/17 02:38:50;;;;;;;17.88;6.97;;;;;;;;;;4964359;28;20485;-57
2022/05/17 02:41:19;;;;;;;21.38;7.03;;;;;;;;;;4966377;28;20051;-57
2022/05/17 02:43:46;;;;;;;16.77;6.32;;;;;;;;;;4966535;28;20050;-57
2022/05/17 02:46:12;;;;;;;18.67;6.43;;;;;;;;;;4966890;28;20066;-56
2022/05/17 02:48:38;;;;;;;20.50;6.47;;;;;;;;;;4966208;28;20083;-57
2022/05/17 02:51:12;;;;;;;20.52;6.75;;;;;;;;;;4966355;28;20109;-57
2022/05/17 02:53:38;;;;;;;20.67;7.05;;;;;;;;;;4965147;28;20055;-57
2022/05/17 02:56:05;;;;;;;19.30;6.40;;;;;;;;;;4966657;28;20051;-56
2022/05/17 02:58:31;;;;;;;19.10;7.40;;;;;;;;;;4966522;28;20043;-57
2022/05/17 03:00:57;;;;;;;20.25;6.97;;;;;;;;;;4966239;28;20039;-57
2022/05/17 03:03:24;;;;;;;18.83;7.80;;;;;;;;;;4965914;28;20051;-57
2022/05/17 03:05:50;;;;;;;21.35;6.85;;;;;;;;;;4965939;28;20107;-57
2022/05/17 03:08:16;;;;;;;22.25;7.32;;;;;;;;;;4965475;28;20408;-57
2022/05/17 03:10:42;;;;;;;21.23;7.00;;;;;;;;;;4966281;28;20043;-57
2022/05/17 03:13:11;;;;;;;16.40;7.45;;;;;;;;;;4964374;28;20038;-57
2022/05/17 03:15:37;;;;;;;20.88;6.90;;;;;;;;;;4966009;28;20573;-57
2022/05/17 03:18:03;;;;;;;20.35;7.50;;;;;;;;;;4966154;28;20050;-57
2022/05/17 03:20:29;;;;;;;16.38;6.82;;;;;;;;;;4963772;28;20868;-57
2022/05/17 03:22:55;;;;;;;19.88;7.10;;;;;;;;;;4965483;28;20062;-57
2022/05/17 03:25:23;;;;;;;17.95;7.20;;;;;;;;;;4965607;28;20045;-57
2022/05/17 03:27:50;;;;;;;19.23;7.07;;;;;;;;;;4965944;28;20061;-57
2022/05/17 03:30:16;;;;;;;15.98;7.18;;;;;;;;;;4965072;28;20043;-57
2022/05/17 03:32:43;;;;;;;20.65;7.10;;;;;;;;;;4965192;28;20081;-57
2022/05/17 03:35:09;;;;;;;15.93;6.72;;;;;;;;;;4966036;28;20047;-57
2022/05/17 03:37:35;;;;;;;25.73;7.43;;;;;;;;;;4964968;28;20420;-57
2022/05/17 03:40:02;;;;;;;17.27;7.18;;;;;;;;;;4965966;28;20051;-56
2022/05/17 03:42:28;;;;;;;20.92;7.57;;;;;;;;;;4965631;28;20122;-57
2022/05/17 03:44:54;;;;;;;24.77;7.70;;;;;;;;;;4965766;28;20043;-57
2022/05/17 03:47:20;;;;;;;24.70;7.18;;;;;;;;;;4964852;28;20409;-57
2022/05/17 03:49:46;;;;;;;20.92;7.63;;;;;;;;;;4964275;28;20137;-57
2022/05/17 03:52:12;;;;;;;17.25;7.72;;;;;;;;;;4965237;28;20055;-57
2022/05/17 03:54:39;;;;;;;23.17;8.05;;;;;;;;;;4965307;28;20516;-57
2022/05/17 03:57:05;;;;;;;17.88;7.00;;;;;;;;;;4964819;28;20142;-57
2022/05/17 03:59:31;;;;;;;20.05;7.68;;;;;;;;;;4966050;28;20109;-57
2022/05/17 04:01:58;;;;;;;17.52;8.02;;;;;;;;;;4965508;28;20046;-57
2022/05/17 04:04:24;;;;;;;22.30;7.55;;;;;;;;;;4965175;28;20105;-57
2022/05/17 04:06:50;;;;;;;22.73;7.75;;;;;;;;;;4965215;28;20069;-57
2022/05/17 04:09:16;;;;;;;19.45;7.75;;;;;;;;;;4965335;28;20042;-57
2022/05/17 04:11:42;;;;;;;17.65;7.88;;;;;;;;;;4965405;28;20134;-58
2022/05/17 04:14:09;;;;;;;17.73;7.43;;;;;;;;;;4965138;28;20086;-58
2022/05/17 04:16:36;;;;;;;15.90;7.93;;;;;;;;;;4965540;28;20100;-57
2022/05/17 04:19:03;;;;;;;27.45;7.38;;;;;;;;;;4965916;28;20094;-57
2022/05/17 04:21:31;;;;;;;18.98;7.75;;;;;;;;;;4964801;28;20043;-58
2022/05/17 04:23:57;;;;;;;24.05;7.93;;;;;;;;;;4965646;28;20043;-57
2022/05/17 04:26:24;;;;;;;21.55;8.20;;;;;;;;;;4964994;28;20556;-57
2022/05/17 04:28:50;;;;;;;18.52;7.35;;;;;;;;;;4964729;28;20039;-57
2022/05/17 04:31:17;;;;;;;27.42;8.70;;;;;;;;;;4965242;28;20408;-58
2022/05/17 04:33:43;;;;;;;21.40;8.07;;;;;;;;;;4969235;28;20074;-57
2022/05/17 04:36:10;;;;;;;17.88;7.45;;;;;;;;;;4968850;28;20050;-58
2022/05/17 04:38:36;;;;;;;23.13;8.05;;;;;;;;;;4968815;28;20046;-57
2022/05/17 04:41:03;;;;;;;24.58;7.47;;;;;;;;;;4969036;28;20043;-57
2022/05/17 04:43:29;;;;;;;20.15;7.43;;;;;;;;;;4966950;28;20432;-57
2022/05/17 04:45:56;;;;;;;19.00;7.47;;;;;;;;;;4968840;28;20121;-57
2022/05/17 04:48:24;;;;;;;16.40;7.22;;;;;;;;;;4968687;28;20051;-57
2022/05/17 04:50:52;;;;;;;19.25;7.43;;;;;;;;;;4968817;28;20051;-57
2022/05/17 04:53:18;;;;;;;19.35;7.50;;;;;;;;;;4967072;28;20078;-58
2022/05/17 04:55:44;;;;;;;16.23;6.53;;;;;;;;;;4966595;28;20175;-57
2022/05/17 04:58:11;;;;;;;17.00;6.88;;;;;;;;;;4968306;28;20086;-57
2022/05/17 05:00:37;;;;;;;13.90;7.00;;;;;;;;;;4968307;28;20126;-57
2022/05/17 05:03:04;;;;;;;23.92;6.70;;;;;;;;;;4969049;28;20138;-57
2022/05/17 05:05:30;;;;;;;25.30;7.32;;;;;;;;;;4968297;28;20043;-57
2022/05/17 05:07:56;;;;;;;23.38;6.78;;;;;;;;;;4967844;28;20047;-57
2022/05/17 05:10:22;;;;;;;16.48;7.10;;;;;;;;;;4967648;28;20043;-57
2022/05/17 05:12:49;;;;;;;20.45;7.40;;;;;;;;;;4967804;28;20050;-57
2022/05/17 05:15:16;;;;;;;18.88;8.75;;;;;;;;;;4967150;28;20074;-58
2022/05/17 05:17:42;;;;;;;20.02;6.75;;;;;;;;;;4966877;28;20054;-58
2022/05/17 05:20:10;;;;;;;16.05;6.53;;;;;;;;;;4968218;28;20070;-57
2022/05/17 05:22:37;;;;;;;16.35;6.53;;;;;;;;;;4966524;28;20053;-57
2022/05/17 05:25:03;;;;;;;16.60;6.38;;;;;;;;;;4967484;28;20210;-58
2022/05/17 05:27:32;;;;;;;16.92;7.85;;;;;;;;;;4954666;28;20055;-57
2022/05/17 05:29:58;;;;;;;16.48;6.70;;;;;;;;;;4958292;28;20082;-57
2022/05/17 05:32:25;;;;;;;23.70;6.78;;;;;;;;;;4963457;28;20047;-57
2022/05/17 05:34:51;;;;;;;16.83;6.43;;;;;;;;;;4953782;28;20401;-57
2022/05/17 05:37:17;;;;;;;20.63;6.68;;;;;;;;;;4962990;28;20113;-58
2022/05/17 05:39:43;;;;;;;15.50;6.10;;;;;;;;;;4956335;28;20662;-57
2022/05/17 05:42:09;;;;;;;18.70;6.85;;;;;;;;;;4950757;28;20066;-57
2022/05/17 05:44:36;;;;;;;16.98;6.05;;;;;;;;;;4952949;28;20089;-57
2022/05/17 05:47:02;;;;;;;18.75;5.65;;;;;;;;;;4949718;28;20493;-58
2022/05/17 05:49:28;;;;;;;18.17;5.68;;;;;;;;;;4959517;28;20500;-59
2022/05/17 05:51:54;;;;;;;17.30;5.78;;;;;;;;;;4965258;28;20469;-59
2022/05/17 05:54:20;;;;;;;17.60;5.72;;;;;;;;;;4965744;28;20097;-59
2022/05/17 05:56:46;;;;;;;15.27;5.93;;;;;;;;;;4958893;28;20122;-58
2022/05/17 05:59:13;;;;;;;17.95;5.97;;;;;;;;;;4949616;28;20054;-59
2022/05/17 06:01:39;;;;;;;14.25;5.43;;;;;;;;;;4962287;28;20043;-59
2022/05/17 06:04:06;;;;;;;19.70;6.10;;;;;;;;;;4963591;28;20098;-59
2022/05/17 06:06:32;;;;;;;10.90;5.38;;;;;;;;;;4965355;28;20042;-59
2022/05/17 06:08:58;;;;;;;16.02;6.00;;;;;;;;;;4965693;28;20450;-59
2022/05/17 06:11:25;;;;;;;12.80;5.10;;;;;;;;;;4958827;28;20102;-59
2022/05/17 06:13:51;;;;;;;16.50;5.90;;;;;;;;;;4947745;28;20489;-59
2022/05/17 06:16:17;;;;;;;16.73;5.95;;;;;;;;;;4950002;28;20118;-58
2022/05/17 06:18:44;;;;;;;16.23;5.75;;;;;;;;;;4948121;28;20046;-59
2022/05/17 06:21:10;;;;;;;22.15;6.03;;;;;;;;;;4952147;28;20046;-59
2022/05/17 06:23:36;;;;;;;15.73;5.85;;;;;;;;;;4964485;28;20046;-59
2022/05/17 06:26:03;;;;;;;16.48;6.15;;;;;;;;;;4964079;28;20122;-59
2022/05/17 06:28:29;;;;;;;15.10;5.72;;;;;;;;;;4947465;28;20039;-59
2022/05/17 06:30:55;;;;;;;19.00;5.57;;;;;;;;;;4955058;28;20452;-58
2022/05/17 06:33:21;;;;;;;13.02;5.22;;;;;;;;;;4965308;28;20577;-58
2022/05/17 06:35:50;;;;;;;13.10;5.65;;;;;;;;;;4964207;28;20047;-57
2022/05/17 06:38:17;;;;;;;16.52;5.80;;;;;;;;;;4964697;28;20043;-59
2022/05/17 06:40:43;;;;;;;18.45;4.80;;;;;;;;;;4959212;28;20043;-59
2022/05/17 06:43:10;;;;;;;11.07;4.53;;;;;;;;;;4947557;28;20059;-58
2022/05/17 06:45:37;;;;;;;11.55;5.28;;;;;;;;;;4947118;28;20041;-59
2022/05/17 06:48:03;;;;;;;12.18;4.78;;;;;;;;;;4947698;28;20164;-59
2022/05/17 06:50:29;;;;;;;11.95;4.47;;;;;;;;;;4948006;28;20050;-59
2022/05/17 06:52:55;;;;;;;14.77;4.70;;;;;;;;;;4946812;28;20485;-59
2022/05/17 06:55:22;;;;;;;15.77;4.93;;;;;;;;;;4944988;28;20096;-58
2022/05/17 06:57:50;;;;;;;16.90;4.40;;;;;;;;;;4946982;28;20405;-59
2022/05/17 07:00:17;;;;;;;16.33;4.55;;;;;;;;;;4963855;28;20039;-59
2022/05/17 07:02:43;;;;;;;16.10;4.45;;;;;;;;;;4964047;28;20109;-59
2022/05/17 07:05:10;;;;;;;12.90;4.25;;;;;;;;;;4964429;28;20054;-59
2022/05/17 07:07:37;;;;;;;15.30;4.40;;;;;;;;;;4963066;28;20101;-59
2022/05/17 07:13:07;;;;;;;8.65;3.38;;;;;;;;;;4960726;28;20105;-59
2022/05/17 07:15:34;;;;;;;11.18;3.67;;;;;;;;;;4964663;28;20069;-59
2022/05/17 07:18:01;;;;;;;12.40;3.95;;;;;;;;;;4962044;28;20469;-59
2022/05/17 07:20:28;;;;;;;14.32;4.05;;;;;;;;;;4946515;28;20047;-59
2022/05/17 07:22:54;;;;;;;14.50;4.07;;;;;;;;;;4945976;28;20050;-59
2022/05/17 07:25:20;;;;;;;14.30;4.05;;;;;;;;;;4946300;28;20559;-58
2022/05/17 07:27:46;;;;;;;10.75;3.55;;;;;;;;;;4950168;28;20497;-59
2022/05/17 07:30:12;;;;;;;15.73;4.18;;;;;;;;;;4964734;28;20043;-59
2022/05/17 07:32:39;;;;;;;11.40;3.40;;;;;;;;;;4964904;28;20049;-59
2022/05/17 07:35:06;;;;;;;14.43;3.75;;;;;;;;;;4964505;28;20433;-59
2022/05/17 07:37:33;;;;;;;11.98;3.67;;;;;;;;;;4960160;28;20561;-59
2022/05/17 07:39:59;;;;;;;17.60;3.78;;;;;;;;;;4964376;28;20047;-59
2022/05/17 07:42:26;;;;;;;13.80;3.70;;;;;;;;;;4964072;28;20043;-59
2022/05/17 07:44:52;;;;;;;12.82;3.15;;;;;;;;;;4963327;28;20057;-59
2022/05/17 07:47:18;;;;;;;13.48;3.88;;;;;;;;;;4959675;28;20039;-59
2022/05/17 07:49:44;;;;;;;15.50;3.63;;;;;;;;;;4946617;28;20126;-59
2022/05/17 07:52:11;;;;;;;12.02;3.25;;;;;;;;;;4946226;28;20081;-59
2022/05/17 07:54:37;;;;;;;17.40;3.85;;;;;;;;;;4946202;28;20047;-59
2022/05/17 07:57:05;;;;;;;9.38;2.70;;;;;;;;;;4950546;28;20042;-59
2022/05/17 07:59:31;;;;;;;10.65;3.15;;;;;;;;;;4946562;28;20063;-59
2022/05/17 08:01:58;;;;;;;9.57;2.60;;;;;;;;;;4947729;28;20137;-59
2022/05/17 08:04:24;;;;;;;7.22;3.10;;;;;;;;;;4946078;28;20666;-59
2022/05/17 08:06:50;;;;;;;16.52;3.05;;;;;;;;;;4950353;28;20085;-58
2022/05/17 08:09:17;;;;;;;12.68;3.42;;;;;;;;;;4967970;28;20113;-56
2022/05/17 08:11:43;;;;;;;15.07;2.90;;;;;;;;;;4968173;28;20101;-56
2022/05/17 08:14:09;;;;;;;15.90;3.38;;;;;;;;;;4967939;28;20393;-57
2022/05/17 08:16:35;;;;;;;13.50;2.50;;;;;;;;;;4964589;28;20052;-56
2022/05/17 08:19:01;;;;;;;11.07;2.78;;;;;;;;;;4950434;28;20098;-57
2022/05/17 08:21:28;;;;;;;19.73;3.60;;;;;;;;;;4949046;28;20051;-57
2022/05/17 08:23:54;;;;;;;13.07;2.88;;;;;;;;;;4950321;28;20043;-56
2022/05/17 08:29:05;;;;;;;12.23;2.88;;;;;;;;;;4966614;28;20090;-56
2022/05/17 08:31:31;;;;;;;8.52;2.28;;;;;;;;;;4967798;28;20051;-57
2022/05/17 08:33:57;;;;;;;8.73;1.83;;;;;;;;;;4967942;28;20123;-57
2022/05/17 08:36:23;;;;;;;11.48;2.17;;;;;;;;;;4961593;28;20050;-57
2022/05/17 08:38:50;;;;;;;11.32;2.95;;;;;;;;;;4949727;28;20050;-56
2022/05/17 08:41:29;;;;;;;10.18;2.60;;;;;;;;;;4949491;28;20074;-57
2022/05/17 08:44:00;;;;;;;8.38;2.22;;;;;;;;;;4948346;28;20148;-57
2022/05/17 08:46:34;;;;;;;9.38;1.95;;;;;;;;;;4956567;28;20047;-56
2022/05/17 08:49:19;;;;;;;9.75;1.83;;;;;;;;;;4967832;28;20468;-56
2022/05/17 08:51:48;;;;;;;6.63;1.30;;;;;;;;;;4949166;28;20051;-57
2022/05/17 08:54:17;;;;;;;11.15;1.70;;;;;;;;;;4949335;28;20050;-57
2022/05/17 08:56:46;;;;;;;8.80;1.63;;;;;;;;;;4960575;28;20051;-57
2022/05/17 08:59:15;;;;;;;7.65;1.48;;;;;;;;;;4949372;28;20039;-57
2022/05/17 09:01:45;;;;;;;6.20;1.13;;;;;;;;;;4967490;28;20065;-56
2022/05/17 09:04:14;;;;;;;9.45;1.35;;;;;;;;;;4966001;28;20060;-57
2022/05/17 09:06:53;;;;;;;5.00;0.85;;;;;;;;;;4954080;28;20059;-57
2022/05/17 09:09:24;;;;;;;8.65;1.35;;;;;;;;;;4948973;28;20150;-57
2022/05/17 09:11:54;;;;;;;4.88;0.80;;;;;;;;;;4948926;28;20556;-57
2022/05/17 09:14:23;;;;;;;7.75;1.33;;;;;;;;;;4949361;28;20054;-56
2022/05/17 09:17:02;;;;;;;5.35;1.70;;;;;;;;;;4964427;28;20093;-57
2022/05/17 09:19:28;;;;;;;5.47;0.95;;;;;;;;;;4965789;28;20131;-57
2022/05/17 09:21:58;;;;;;;3.83;1.10;;;;;;;;;;4966526;28;20053;-57
2022/05/17 09:24:26;;;;;;;19.23;1.45;;;;;;;;;;4965613;28;20662;-56
2022/05/17 09:27:01;;;;;;;6.03;1.30;;;;;;;;;;4966881;28;20047;-56
2022/05/17 09:29:29;;;;;;;7.85;0.88;;;;;;;;;;4967026;28;20049;-57
2022/05/17 09:31:59;;;;;;;7.47;1.05;;;;;;;;;;4966741;28;20638;-57
2022/05/17 09:34:29;;;;;;;8.13;0.98;;;;;;;;;;4964491;28;20046;-57
2022/05/17 09:36:56;;;;;;;5.97;0.82;;;;;;;;;;4956835;28;20808;-57
2022/05/17 09:39:25;;;;;;;5.35;0.80;;;;;;;;;;4964768;28;20039;-56
2022/05/17 09:41:52;;;;;;;8.15;1.00;;;;;;;;;;4966810;28;20489;-57
2022/05/17 09:44:22;;;;;;;4.68;1.05;;;;;;;;;;4963915;28;20110;-57
2022/05/17 09:46:49;;;;;;;5.40;0.70;;;;;;;;;;4965761;28;20039;-57
2022/05/17 09:54:51;;;;;;;5.00;0.98;;;;;;;;;;4957941;28;20508;-57
2022/05/17 09:57:21;;;;;;;5.63;0.90;;;;;;;;;;4947818;28;20043;-57
2022/05/17 09:59:49;;;;;;;10.15;1.00;;;;;;;;;;4948130;28;20887;-57
2022/05/17 10:02:32;;;;;;;9.17;1.30;;;;;;;;;;4960492;28;20505;-56
2022/05/17 10:05:00;;;;;;;5.30;0.88;;;;;;;;;;4955091;28;20058;-57
2022/05/17 10:07:28;;;;;;;6.00;0.95;;;;;;;;;;4965370;28;20105;-57
2022/05/17 10:09:54;;;;;;;7.55;1.10;;;;;;;;;;4966066;28;20043;-57
2022/05/17 10:12:23;;;;;;;5.80;0.90;;;;;;;;;;4965581;28;20057;-57
2022/05/17 10:14:52;;;;;;;4.68;0.98;;;;;;;;;;4954649;28;20050;-56
2022/05/17 10:17:19;;;;;;;6.45;1.58;;;;;;;;;;4947505;28;20052;-57
2022/05/17 10:20:01;;;;;;;11.27;1.38;;;;;;;;;;4946456;28;20083;-57
2022/05/17 10:22:31;;;;;;;4.93;1.10;;;;;;;;;;4946646;28;20039;-57
2022/05/17 10:25:02;;;;;;;4.43;0.80;;;;;;;;;;4946951;28;20043;-56
2022/05/17 10:27:34;;;;;;;5.35;1.05;;;;;;;;;;4956116;28;20049;-56
2022/05/17 10:30:06;;;;;;;8.55;0.80;;;;;;;;;;4966062;28;20776;-56
2022/05/17 10:32:35;;;;;;;4.43;0.88;;;;;;;;;;4958720;28;20370;-57
2022/05/17 10:35:07;;;;;;;6.50;0.90;;;;;;;;;;4955552;28;20051;-57
2022/05/17 10:37:36;;;;;;;4.05;0.70;;;;;;;;;;4957411;28;20035;-56
2022/05/17 10:40:06;;;;;;;5.22;1.40;;;;;;;;;;4948869;28;20141;-57
2022/05/17 10:42:32;;;;;;;5.90;1.02;;;;;;;;;;4956700;28;20057;-56
2022/05/17 10:44:59;;;;;;;8.27;1.02;;;;;;;;;;4958762;28;20043;-56
2022/05/17 10:47:35;;;;;;;5.20;1.00;;;;;;;;;;4957637;28;20489;-57
2022/05/17 10:50:02;;;;;;;5.72;0.77;;;;;;;;;;4952028;28;20497;-57
2022/05/17 10:52:44;;;;;;;6.07;1.02;;;;;;;;;;4956871;28;20103;-57
2022/05/17 10:55:28;;;;;;;4.90;0.82;;;;;;;;;;4960276;28;20042;-56
2022/05/17 10:57:58;;;;;;;7.05;0.73;;;;;;;;;;4959010;28;20117;-56
2022/05/17 11:00:27;;;;;;;6.25;0.90;;;;;;;;;;4954508;28;20043;-56
2022/05/17 11:02:59;;;;;;;9.00;1.48;;;;;;;;;;4956265;28;20039;-56
2022/05/17 11:05:31;;;;;;;4.35;0.77;;;;;;;;;;4955217;28;20061;-56
2022/05/17 11:08:02;;;;;;;8.60;1.10;;;;;;;;;;4958747;28;20049;-56
2022/05/17 11:10:47;;;;;;;8.65;0.82;;;;;;;;;;4958972;28;20098;-56
2022/05/17 11:13:30;;;;;;;6.85;1.05;;;;;;;;;;4958362;28;20102;-57
2022/05/17 11:16:00;;;;;;;6.03;0.75;;;;;;;;;;4959371;28;20042;-56
2022/05/17 11:18:45;;;;;;;7.53;0.90;;;;;;;;;;4959910;28;20401;-56
2022/05/17 11:21:21;;;;;;;4.85;1.10;;;;;;;;;;4960088;28;20426;-56
2022/05/17 11:23:50;;;;;;;8.10;1.10;;;;;;;;;;4948532;28;20055;-56
2022/05/17 11:26:16;;;;;;;7.85;1.05;;;;;;;;;;4946776;28;20036;-56
2022/05/17 11:28:44;;;;;;;7.90;1.10;;;;;;;;;;4945651;28;20051;-56
2022/05/17 11:31:14;;;;;;;8.63;1.35;;;;;;;;;;4965177;28;20043;-56
2022/05/17 11:33:41;;;;;;;12.98;2.08;;;;;;;;;;4947304;28;20084;-56
2022/05/17 11:36:10;;;;;;;7.40;1.45;;;;;;;;;;4956589;28;20054;-58
2022/05/17 11:38:37;;;;;;;11.73;1.42;;;;;;;;;;4955683;28;20043;-58
2022/05/17 11:41:07;;;;;;;8.63;1.40;;;;;;;;;;4946843;28;20046;-57
2022/05/17 11:44:12;;;;;;;9.55;2.00;;;;;;;;;;4945193;28;20078;-58
2022/05/17 11:46:42;;;;;;;12.32;1.80;;;;;;;;;;4961288;28;20500;-59
2022/05/17 11:49:09;;;;;;;13.13;1.90;;;;;;;;;;4964583;28;20050;-58
2022/05/17 11:51:38;;;;;;;11.90;1.40;;;;;;;;;;4958047;28;20043;-59
2022/05/17 11:54:08;;;;;;;37.38;2.50;;;;;;;;;;4947245;28;20430;-58
2022/05/17 11:56:36;;;;;;;7.40;1.58;;;;;;;;;;4946753;28;20050;-58
2022/05/17 11:59:08;;;;;;;9.95;2.10;;;;;;;;;;4948071;28;20039;-58
2022/05/17 12:01:35;;;;;;;14.05;1.60;;;;;;;;;;4948132;28;20089;-58
2022/05/17 12:04:02;;;;;;;12.23;1.50;;;;;;;;;;4946737;28;20102;-58
2022/05/17 12:07:04;;;;;;;11.13;1.58;;;;;;;;;;4945380;28;20047;-58
2022/05/17 12:09:38;;;;;;;10.20;1.65;;;;;;;;;;4963254;28;20054;-58
2022/05/17 12:12:17;;;;;;;9.77;1.90;;;;;;;;;;4951763;28;20405;-58
2022/05/17 12:15:03;;;;;;;47.58;4.05;;;;;;;;;;4946654;28;20106;-58
2022/05/17 12:17:33;;;;;;;11.98;1.70;;;;;;;;;;4945594;28;20111;-58
2022/05/17 12:20:15;;;;;;;8.88;1.48;;;;;;;;;;4964016;28;20398;-57
2022/05/17 12:22:45;;;;;;;7.75;1.35;;;;;;;;;;4960311;28;20716;-57
2022/05/17 12:25:15;;;;;;;7.10;1.30;;;;;;;;;;4956667;28;20046;-58
2022/05/17 12:27:43;;;;;;;7.35;1.35;;;;;;;;;;4958243;28;20055;-57
2022/05/17 12:33:29;;;;;;;8.73;1.63;;;;;;;;;;4962045;28;20070;-58
2022/05/17 12:36:10;;;;;;;6.32;1.35;;;;;;;;;;4976692;28;20199;-58
2022/05/17 12:44:12;;;;;;;9.80;2.42;;;;;;;;;;4959728;28;20043;-58
2022/05/17 12:46:39;;;;;;;10.68;2.53;;;;;;;;;;4957705;28;20074;-58
2022/05/17 12:49:25;;;;;;;12.97;2.90;;;;;;;;;;4948703;28;20533;-58
2022/05/17 12:52:00;;;;;;;9.57;2.30;;;;;;;;;;4964348;28;20302;-58
2022/05/17 12:54:28;;;;;;;15.68;2.75;;;;;;;;;;4951125;28;20122;-58
2022/05/17 12:56:54;;;;;;;;;;;;;;;;;;4960358;28;20424;-58
2022/05/17 12:59:27;;;;;;;12.45;3.15;;;;;;;;;;4960497;28;20009;-58
2022/05/17 13:01:56;;;;;;;9.52;2.30;;;;;;;;;;4959980;28;20050;-58
2022/05/17 13:04:28;;;;;;;10.45;1.80;;;;;;;;;;4958030;28;20054;-58
2022/05/17 13:07:04;;;;;;;9.95;1.90;;;;;;;;;;4959889;28;20051;-57
2022/05/17 13:09:30;;;;;;;8.65;1.50;;;;;;;;;;4967251;28;20042;-57
2022/05/17 13:11:56;;;;;;;8.52;1.80;;;;;;;;;;4967245;28;20552;-58
2022/05/17 13:14:28;;;;;;;6.72;1.73;;;;;;;;;;4966918;28;20045;-58
2022/05/17 13:16:57;;;;;;;8.90;2.28;;;;;;;;;;4954308;28;20043;-58
2022/05/17 13:19:26;;;;;;;11.35;2.00;;;;;;;;;;4956199;28;20302;-58
2022/05/17 13:21:54;;;;;;;8.05;2.05;;;;;;;;;;4947298;28;20587;-58
2022/05/17 13:24:31;;;;;;;11.02;2.33;;;;;;;;;;4948727;28;20457;-57
2022/05/17 13:26:59;;;;;;;9.83;2.27;;;;;;;;;;4964340;28;20047;-57
2022/05/17 13:29:27;;;;;;;8.82;2.30;;;;;;;;;;4960624;28;20051;-57
2022/05/17 13:31:54;;;;;;;;;;;;;;;;;;4961371;28;20042;-57
2022/05/17 13:34:20;;;;;;;6.85;1.58;;;;;;;;;;4959673;28;19984;-57
2022/05/17 13:36:46;;;;;;;13.85;2.13;;;;;;;;;;4962294;28;20053;-57
2022/05/17 13:39:18;;;;;;;6.00;2.22;;;;;;;;;;4963102;28;20418;-57
2022/05/17 13:41:45;;;;;;;7.07;1.60;;;;;;;;;;4961476;28;20624;-57
2022/05/17 13:44:25;;;;;;;8.45;1.80;;;;;;;;;;4961754;28;20069;-57
2022/05/17 13:46:51;;;;;;;8.55;1.77;;;;;;;;;;4960869;28;20167;-57
2022/05/17 13:49:25;;;;;;;10.80;1.83;;;;;;;;;;4958354;28;20129;-57
2022/05/17 13:52:02;;;;;;;6.72;1.92;;;;;;;;;;4962486;28;20053;-57
2022/05/17 13:54:40;;;;;;;9.10;2.17;;;;;;;;;;4961426;28;20045;-57
2022/05/17 13:57:12;;;;;;;15.05;1.75;;;;;;;;;;4962421;28;20523;-57
2022/05/17 13:59:39;;;;;;;9.68;2.03;;;;;;;;;;4962659;28;20055;-57
2022/05/17 14:02:14;;;;;;;5.72;1.63;;;;;;;;;;4963031;28;20058;-58
2022/05/17 14:04:43;;;;;;;9.23;1.65;;;;;;;;;;4960628;28;20048;-58
2022/05/17 14:07:25;;;;;;;8.27;1.58;;;;;;;;;;4963428;28;20548;-58
2022/05/17 14:13:09;;;;;;;7.38;2.03;;;;;;;;;;4953756;28;20562;-57
2022/05/17 14:15:37;;;;;;;7.20;1.77;;;;;;;;;;4955726;28;20061;-59
2022/05/17 14:18:04;;;;;;;12.77;2.28;;;;;;;;;;4954927;28;20332;-58
2022/05/17 14:20:30;;;;;;;8.60;2.28;;;;;;;;;;4965213;28;20062;-58
2022/05/17 14:22:58;;;;;;;7.88;1.83;;;;;;;;;;4961026;28;20053;-58
2022/05/17 14:25:26;;;;;;;7.57;2.35;;;;;;;;;;4947717;28;20059;-58
2022/05/17 14:27:55;;;;;;;8.43;2.75;;;;;;;;;;4948068;28;20051;-58
2022/05/17 14:30:21;;;;;;;6.90;2.10;;;;;;;;;;4962456;28;20039;-59
2022/05/17 14:32:47;;;;;;;8.07;2.45;;;;;;;;;;4960153;28;20043;-58
2022/05/17 14:35:14;;;;;;;7.20;2.45;;;;;;;;;;4946334;28;20047;-59
2022/05/17 14:37:40;;;;;;;7.43;2.47;;;;;;;;;;4949728;28;20062;-59
2022/05/17 14:40:07;;;;;;;11.05;2.42;;;;;;;;;;4962066;28;20133;-58
2022/05/17 14:42:35;;;;;;;16.23;2.53;;;;;;;;;;4959745;28;20057;-58
2022/05/17 14:45:01;;;;;;;57.60;5.15;;;;;;;;;;4948057;28;20165;-58
2022/05/17 14:47:27;;;;;;;11.85;2.85;;;;;;;;;;4946925;28;20486;-57
2022/05/17 14:49:55;;;;;;;11.85;2.67;;;;;;;;;;4946760;28;20039;-58
2022/05/17 14:52:22;;;;;;;9.20;2.45;;;;;;;;;;4954141;28;20039;-58
2022/05/17 14:54:48;;;;;;;8.52;2.13;;;;;;;;;;4956466;28;20043;-58
2022/05/17 14:57:14;;;;;;;7.35;2.13;;;;;;;;;;4946892;28;20039;-58
2022/05/17 14:59:40;;;;;;;9.05;2.17;;;;;;;;;;4947253;28;20051;-58
2022/05/17 15:02:09;;;;;;;12.68;2.88;;;;;;;;;;4948122;28;20043;-58
2022/05/17 15:04:36;;;;;;;10.73;2.30;;;;;;;;;;4946233;28;20059;-58
2022/05/17 15:07:08;;;;;;;17.27;2.60;;;;;;;;;;4946130;28;20134;-58
2022/05/17 15:09:35;;;;;;;13.32;2.38;;;;;;;;;;4958114;28;20098;-58